Time,TemperatureF,DewpointF,PressureIn,WindDirection,WindDirectionDegrees,WindSpeedMPH,WindSpeedGustMPH,Humidity,HourlyPrecipIn,Conditions,Clouds,dailyrainin,SoftwareType,DateUTC
2013-11-24 00:10:00,43.1,23.0,21.19,NNW,340,16.0,23.0,44,0.00,,,0.00,weatherlink.com 1.10,2013-11-24 02:10:00,
2013-11-24 00:27:00,42.6,24.0,31.80,WNW,296,8.0,19.0,47,0.00,,,0.00,weatherlink.com 1.10,2013-11-24 02:27:00,
2013-11-24 00:42:00,42.7,25.0,31.80,NNW,333,11.0,29.0,49,0.00,,,0.00,weatherlink.com 1.10,2013-11-24 02:42:00,
2013-11-24 00:58:00,42.1,25.0,31.80,NNW,327,7.0,18.0,51,0.00,,,0.00,weatherlink.com 1.10,2013-11-24 02:58:00,
2013-11-24 01:15:00,41.8,26.0,31.80,NNW,329,9.0,23.0,53,0.00,,,0.00,weatherlink.com 1.10,2013-11-24 03:15:00,
2013-11-24 01:31:00,41.1,26.0,31.80,WNW,298,6.0,17.0,54,0.00,,,0.00,weatherlink.com 1.10,2013-11-24 03:31:00,
2013-11-24 01:47:00,40.6,25.0,31.80,NW,316,17.0,23.0,54,0.00,,,0.00,weatherlink.com 1.10,2013-11-24 03:47:00,
2013-11-24 02:03:00,40.0,25.0,31.80,NNW,342,13.0,25.0,54,0.00,,,0.00,weatherlink.com 1.10,2013-11-24 04:03:00,
2013-11-24 02:19:00,39.3,24.0,28.09,NW,309,14.0,26.0,53,0.00,,,0.00,weatherlink.com 1.10,2013-11-24 04:19:00,
2013-11-24 02:36:00,38.7,23.0,28.09,WNW,286,9.0,17.0,54,0.00,,,0.00,weatherlink.com 1.10,2013-11-24 04:36:00,
2013-11-24 02:51:00,38.1,23.0,28.09,WNW,297,7.0,13.0,54,0.00,,,0.00,weatherlink.com 1.10,2013-11-24 04:51:00,
2013-11-24 03:08:00,37.3,23.0,28.09,NW,311,5.0,10.0,56,0.00,,,0.00,weatherlink.com 1.10,2013-11-24 05:08:00,
2013-11-24 03:24:00,36.9,21.0,32.13,NW,313,7.0,10.0,53,0.00,,,0.00,weatherlink.com 1.10,2013-11-24 05:24:00,
2013-11-24 03:40:00,36.6,21.0,32.13,NW,315,5.0,15.0,52,0.00,,,0.00,weatherlink.com 1.10,2013-11-24 05:40:00,
2013-11-24 03:56:00,35.9,20.0,32.13,NW,321,5.0,15.0,51,0.00,,,0.00,weatherlink.com 1.10,2013-11-24 05:56:00,
2013-11-24 04:12:00,35.1,19.0,32.13,North,349,10.0,18.0,51,0.00,,,0.00,weatherlink.com 1.10,2013-11-24 06:12:00,
2013-11-24 04:29:00,34.4,19.0,32.13,NW,325,10.0,17.0,52,0.00,,,0.00,weatherlink.com 1.10,2013-11-24 06:29:00,
2013-11-24 04:45:00,33.6,16.0,32.13,NW,316,12.0,22.0,48,0.00,,,0.00,weatherlink.com 1.10,2013-11-24 06:45:00,
2013-11-24 05:01:00,33.1,16.0,32.13,NW,315,16.0,20.0,48,0.00,,,0.00,weatherlink.com 1.10,2013-11-24 07:01:00,
2013-11-24 05:17:00,32.8,15.0,32.13,NNW,327,9.0,22.0,47,0.00,,,0.00,weatherlink.com 1.10,2013-11-24 07:17:00,
2013-11-24 05:34:00,32.2,16.0,32.13,NNE,14,1.0,12.0,50,0.00,,,0.00,weatherlink.com 1.10,2013-11-24 07:34:00,
2013-11-24 05:49:00,31.7,17.0,32.13,NW,325,3.0,11.0,53,0.00,,,0.00,weatherlink.com 1.10,2013-11-24 07:49:00,
2013-11-24 06:06:00,31.0,17.0,32.13,NW,314,7.0,10.0,55,0.00,,,0.00,weatherlink.com 1.10,2013-11-24 08:06:00,
2013-11-24 06:22:00,30.7,16.0,32.13,NNW,337,6.0,12.0,55,0.00,,,0.00,weatherlink.com 1.10,2013-11-24 08:22:00,
2013-11-24 06:38:00,30.1,16.0,32.13,NW,326,5.0,9.0,56,0.00,,,0.00,weatherlink.com 1.10,2013-11-24 08:38:00,
2013-11-24 06:54:00,30.1,16.0,32.13,NNW,342,2.0,12.0,55,0.00,,,0.00,weatherlink.com 1.10,2013-11-24 08:54:00,
2013-11-24 07:10:00,29.9,16.0,32.13,NNW,342,5.0,10.0,56,0.00,,,0.00,weatherlink.com 1.10,2013-11-24 09:10:00,
2013-11-24 07:27:00,29.7,16.0,32.13,NNW,342,1.0,10.0,56,0.00,,,0.00,weatherlink.com 1.10,2013-11-24 09:27:00,
2013-11-24 07:43:00,29.7,16.0,32.13,NNW,338,6.0,11.0,56,0.00,,,0.00,weatherlink.com 1.10,2013-11-24 09:43:00,
2013-11-24 08:00:00,29.6,15.0,0.00,WNW,299,10.0,12.0,55,0.00,,,0.00,weatherlink.com 1.10,2013-11-24 10:00:00,
2013-11-24 08:17:00,29.3,16.0,0.00,NW,307,3.0,7.0,56,0.00,,,0.00,weatherlink.com 1.10,2013-11-24 10:17:00,
2013-11-24 08:33:00,29.0,16.0,0.00,NNW,347,3.0,8.0,57,0.00,,,0.00,weatherlink.com 1.10,2013-11-24 10:33:00,
2013-11-24 08:49:00,28.5,15.0,0.00,NNW,328,6.0,10.0,57,0.00,,,0.00,weatherlink.com 1.10,2013-11-24 10:49:00,
2013-11-24 09:05:00,28.4,14.0,0.00,NW,326,6.0,12.0,55,0.00,,,0.00,weatherlink.com 1.10,2013-11-24 11:05:00,
2013-11-24 09:21:00,28.0,14.0,0.00,NNW,340,5.0,11.0,55,0.00,,,0.00,weatherlink.com 1.10,2013-11-24 11:21:00,
2013-11-24 09:37:00,27.8,14.0,0.00,NNW,342,4.0,11.0,56,0.00,,,0.00,weatherlink.com 1.10,2013-11-24 11:37:00,
2013-11-24 09:53:00,27.4,14.0,0.00,NNW,341,3.0,7.0,57,0.00,,,0.00,weatherlink.com 1.10,2013-11-24 11:53:00,
2013-11-24 10:09:00,27.4,14.0,0.00,NNW,346,2.0,9.0,56,0.00,,,0.00,weatherlink.com 1.10,2013-11-24 12:09:00,
2013-11-24 10:39:00,27.7,14.0,0.00,NNW,331,1.0,9.0,56,0.00,,,0.00,weatherlink.com 1.10,2013-11-24 12:39:00,
2013-11-24 10:55:00,28.1,14.0,0.00,NNW,346,1.0,9.0,55,0.00,,,0.00,weatherlink.com 1.10,2013-11-24 12:55:00,
2013-11-24 11:11:00,28.3,14.0,0.00,NNW,336,3.0,6.0,54,0.00,,,0.00,weatherlink.com 1.10,2013-11-24 13:11:00,
2013-11-24 11:28:00,28.8,13.0,0.00,NW,319,8.0,10.0,52,0.00,,,0.00,weatherlink.com 1.10,2013-11-24 13:28:00,
2013-11-24 11:44:00,29.3,13.0,0.00,North,360,6.0,10.0,51,0.00,,,0.00,weatherlink.com 1.10,2013-11-24 13:44:00,
2013-11-24 12:00:00,30.2,13.0,0.00,NNW,336,4.0,9.0,49,0.00,,,0.00,weatherlink.com 1.10,2013-11-24 14:00:00,
2013-11-24 12:16:00,31.1,13.0,0.00,North,355,2.0,8.0,46,0.00,,,0.00,weatherlink.com 1.10,2013-11-24 14:16:00,
2013-11-24 12:32:00,31.7,12.0,0.00,North,5,0.0,6.0,44,0.00,,,0.00,weatherlink.com 1.10,2013-11-24 14:32:00,
2013-11-24 12:48:00,32.2,12.0,0.00,NNW,327,5.0,14.0,43,0.00,,,0.00,weatherlink.com 1.10,2013-11-24 14:48:00,
2013-11-24 13:04:00,32.2,11.0,31.30,NNW,338,9.0,18.0,40,0.00,,,0.00,weatherlink.com 1.10,2013-11-24 15:04:00,
2013-11-24 13:20:00,32.9,9.0,31.30,NW,326,7.0,14.0,37,0.00,,,0.00,weatherlink.com 1.10,2013-11-24 15:20:00,
2013-11-24 13:36:00,33.4,10.0,31.30,NW,317,7.0,13.0,38,0.00,,,0.00,weatherlink.com 1.10,2013-11-24 15:36:00,
2013-11-24 13:52:00,34.4,10.0,31.30,NNE,28,5.0,10.0,36,0.00,,,0.00,weatherlink.com 1.10,2013-11-24 15:52:00,
2013-11-24 14:08:00,34.7,10.0,31.30,East,86,8.0,10.0,35,0.00,,,0.00,weatherlink.com 1.10,2013-11-24 16:08:00,
2013-11-24 14:25:00,35.4,11.0,31.30,NE,34,2.0,14.0,36,0.00,,,0.00,weatherlink.com 1.10,2013-11-24 16:25:00,
2013-11-24 14:41:00,35.6,9.0,31.30,ENE,61,4.0,11.0,33,0.00,,,0.00,weatherlink.com 1.10,2013-11-24 16:41:00,
2013-11-24 14:57:00,36.9,8.0,31.30,NE,44,5.0,9.0,30,0.00,,,0.00,weatherlink.com 1.10,2013-11-24 16:57:00,
2013-11-24 15:13:00,37.5,10.0,31.30,NNW,345,2.0,7.0,31,0.00,,,0.00,weatherlink.com 1.10,2013-11-24 17:13:00,
2013-11-24 15:29:00,37.0,11.0,31.30,NNE,22,8.0,8.0,33,0.00,,,0.00,weatherlink.com 1.10,2013-11-24 17:29:00,
2013-11-24 15:45:00,38.3,10.0,31.30,NNE,30,7.0,10.0,30,0.00,,,0.00,weatherlink.com 1.10,2013-11-24 17:45:00,
2013-11-24 16:01:00,38.7,10.0,32.42,ENE,67,3.0,8.0,30,0.00,,,0.00,weatherlink.com 1.10,2013-11-24 18:01:00,
2013-11-24 16:18:00,39.2,10.0,32.42,NW,323,7.0,12.0,30,0.00,,,0.00,weatherlink.com 1.10,2013-11-24 18:18:00,
2013-11-24 16:34:00,39.1,9.0,32.42,North,355,4.0,10.0,29,0.00,,,0.00,weatherlink.com 1.10,2013-11-24 18:34:00,
2013-11-24 16:50:00,39.3,9.0,32.42,North,350,10.0,11.0,28,0.00,,,0.00,weatherlink.com 1.10,2013-11-24 18:50:00,
2013-11-24 17:06:00,39.3,10.0,32.42,NNW,345,7.0,10.0,30,0.00,,,0.00,weatherlink.com 1.10,2013-11-24 19:06:00,
2013-11-24 17:22:00,40.5,9.0,32.42,WNW,300,8.0,8.0,27,0.00,,,0.00,weatherlink.com 1.10,2013-11-24 19:22:00,
2013-11-24 17:38:00,40.6,9.0,32.42,NNW,336,4.0,7.0,27,0.00,,,0.00,weatherlink.com 1.10,2013-11-24 19:38:00,
2013-11-24 17:55:00,40.0,7.0,32.42,NNW,342,3.0,10.0,25,0.00,,,0.00,weatherlink.com 1.10,2013-11-24 19:55:00,
2013-11-24 18:10:00,39.6,7.0,32.42,NW,309,7.0,12.0,26,0.00,,,0.00,weatherlink.com 1.10,2013-11-24 20:10:00,
2013-11-24 18:27:00,39.1,9.0,32.42,NW,321,3.0,10.0,28,0.00,,,0.00,weatherlink.com 1.10,2013-11-24 20:27:00,
2013-11-24 18:43:00,38.7,8.0,32.42,NNW,331,5.0,10.0,27,0.00,,,0.00,weatherlink.com 1.10,2013-11-24 20:43:00,
2013-11-24 18:59:00,38.0,9.0,32.42,NNW,342,5.0,9.0,29,0.00,,,0.00,weatherlink.com 1.10,2013-11-24 20:59:00,
2013-11-24 19:15:00,37.7,8.0,32.42,NW,318,2.0,10.0,29,0.00,,,0.00,weatherlink.com 1.10,2013-11-24 21:15:00,
2013-11-24 19:31:00,37.4,9.0,0.00,NNW,331,4.0,9.0,30,0.00,,,0.00,weatherlink.com 1.10,2013-11-24 21:31:00,
2013-11-24 19:47:00,37.2,9.0,0.00,NW,323,4.0,10.0,31,0.00,,,0.00,weatherlink.com 1.10,2013-11-24 21:47:00,
2013-11-24 20:03:00,36.2,8.0,25.89,NW,326,3.0,10.0,31,0.00,,,0.00,weatherlink.com 1.10,2013-11-24 22:03:00,
2013-11-24 20:20:00,34.9,8.0,21.61,NW,309,4.0,7.0,32,0.00,,,0.00,weatherlink.com 1.10,2013-11-24 22:20:00,
2013-11-24 20:36:00,34.1,9.0,21.61,NNW,342,4.0,8.0,34,0.00,,,0.00,weatherlink.com 1.10,2013-11-24 22:36:00,
2013-11-24 20:52:00,33.4,7.0,21.61,North,349,3.0,8.0,33,0.00,,,0.00,weatherlink.com 1.10,2013-11-24 22:52:00,
2013-11-24 21:08:00,32.9,8.0,21.61,North,355,2.0,6.0,34,0.00,,,0.00,weatherlink.com 1.10,2013-11-24 23:08:00,
2013-11-24 21:24:00,32.2,8.0,21.61,North,360,1.0,4.0,35,0.00,,,0.00,weatherlink.com 1.10,2013-11-24 23:24:00,
2013-11-24 21:40:00,31.8,7.0,21.61,NNW,348,3.0,7.0,35,0.00,,,0.00,weatherlink.com 1.10,2013-11-24 23:40:00,
2013-11-24 21:56:00,31.2,7.0,21.52,North,349,0.0,4.0,35,0.00,,,0.00,weatherlink.com 1.10,2013-11-24 23:56:00,
2013-11-24 22:12:00,30.3,7.0,21.52,North,349,0.0,3.0,37,0.00,,,0.00,weatherlink.com 1.10,2013-11-25 00:12:00,
2013-11-24 22:28:00,29.9,7.0,23.25,North,349,0.0,3.0,37,0.00,,,0.00,weatherlink.com 1.10,2013-11-25 00:28:00,
2013-11-24 22:44:00,29.3,6.0,23.25,North,349,0.0,1.0,37,0.00,,,0.00,weatherlink.com 1.10,2013-11-25 00:44:00,
2013-11-24 23:00:00,29.0,7.0,23.25,North,349,0.0,1.0,39,0.00,,,0.00,weatherlink.com 1.10,2013-11-25 01:00:00,
2013-11-24 23:17:00,26.6,10.0,30.60,North,349,0.0,1.0,50,0.00,,,0.00,weatherlink.com 1.10,2013-11-25 01:17:00,
2013-11-24 23:33:00,26.2,10.0,24.98,North,349,0.0,2.0,49,0.00,,,0.00,weatherlink.com 1.10,2013-11-25 01:33:00,
2013-11-24 23:49:00,26.8,9.0,24.98,North,349,0.0,3.0,46,0.00,,,0.00,weatherlink.com 1.10,2013-11-25 01:49:00,